Time;durP1;ratioP1;P1;durP2;ratioP2;P2;SDS_P1;SDS_P2;PMS_P1;PMS_P2;Temp;Humidity;BMP_temperature;BMP_pressure;BME280_temperature;BME280_humidity;BME280_pressure;Samples;Min_cycle;Max_cycle;Signal;HPM_P1;HPM_P2
2023/03/20 00:00:58;;;;;;;26.67;19.00;;;11.40;99.90;;;;;;5050627;28;21051;-77
2023/03/20 00:03:23;;;;;;;30.40;19.43;;;11.40;99.90;;;;;;5048805;28;20528;-77
2023/03/20 00:05:50;;;;;;;27.00;18.23;;;11.30;99.90;;;;;;5051397;28;20611;-77
2023/03/20 00:08:16;;;;;;;25.13;18.13;;;11.30;99.90;;;;;;5047360;28;20181;-77
2023/03/20 00:10:45;;;;;;;26.07;18.50;;;11.30;99.90;;;;;;5049052;28;20420;-77
2023/03/20 00:13:27;;;;;;;24.93;17.87;;;11.30;99.90;;;;;;5048877;28;20458;-76
2023/03/20 00:15:53;;;;;;;23.27;17.07;;;11.20;99.90;;;;;;5049185;28;20432;-77
2023/03/20 00:18:21;;;;;;;24.30;17.50;;;11.20;99.90;;;;;;5050271;28;20791;-77
2023/03/20 00:20:49;;;;;;;22.43;16.70;;;11.20;99.90;;;;;;5048657;28;20513;-77
2023/03/20 00:23:16;;;;;;;24.10;17.90;;;11.20;99.90;;;;;;5049198;28;21005;-77
2023/03/20 00:25:43;;;;;;;24.87;17.20;;;11.10;99.90;;;;;;5048913;28;20499;-76
2023/03/20 00:28:31;;;;;;;21.80;16.07;;;11.00;99.90;;;;;;5050213;28;20829;-77
2023/03/20 00:30:57;;;;;;;23.50;16.90;;;11.10;99.90;;;;;;5049921;28;20424;-77
2023/03/20 00:33:23;;;;;;;27.20;18.40;;;11.10;99.90;;;;;;5048653;28;20444;-77
2023/03/20 00:35:48;;;;;;;26.30;18.60;;;11.00;99.90;;;;;;5031113;28;20427;-77
2023/03/20 00:38:14;;;;;;;26.53;18.40;;;11.00;99.90;;;;;;5054015;28;20219;-77
2023/03/20 00:40:40;;;;;;;28.77;19.67;;;11.00;99.90;;;;;;5051753;28;20209;-76
2023/03/20 00:43:06;;;;;;;25.60;20.00;;;11.00;99.90;;;;;;5043765;28;20194;-76
2023/03/20 00:45:34;;;;;;;27.33;20.73;;;11.00;99.90;;;;;;5050570;28;20177;-77
2023/03/20 00:48:00;;;;;;;25.67;18.83;;;11.10;99.90;;;;;;5050263;28;20448;-76
2023/03/20 00:50:28;;;;;;;27.43;19.83;;;11.00;99.90;;;;;;5050482;28;21113;-77
2023/03/20 00:52:55;;;;;;;24.27;17.73;;;11.00;99.90;;;;;;5050462;28;20433;-77
2023/03/20 00:55:23;;;;;;;25.93;17.00;;;10.90;99.90;;;;;;5050365;28;20429;-76
2023/03/20 00:57:54;;;;;;;24.60;17.27;;;10.90;99.90;;;;;;5048769;28;20404;-77
2023/03/20 01:00:40;;;;;;;21.23;16.17;;;10.90;99.90;;;;;;5050100;28;20427;-77
2023/03/20 01:03:21;;;;;;;18.93;14.10;;;10.90;99.90;;;;;;5049989;28;20494;-76
2023/03/20 01:05:48;;;;;;;21.03;15.30;;;10.90;99.90;;;;;;5050350;28;20420;-76
2023/03/20 01:08:19;;;;;;;18.87;14.53;;;10.90;99.90;;;;;;5048472;28;20416;-76
2023/03/20 01:10:47;;;;;;;22.70;14.97;;;10.90;99.90;;;;;;5048753;28;20409;-77
2023/03/20 01:13:25;;;;;;;20.90;15.50;;;10.80;99.90;;;;;;5049578;28;20820;-76
2023/03/20 01:15:52;;;;;;;19.63;13.93;;;10.80;99.90;;;;;;5048887;28;21002;-76
2023/03/20 01:18:19;;;;;;;17.13;14.50;;;10.80;99.90;;;;;;5049584;28;20420;-76
2023/03/20 01:20:45;;;;;;;20.60;14.33;;;10.80;99.90;;;;;;5049697;28;20478;-76
2023/03/20 01:23:11;;;;;;;21.60;14.87;;;10.80;99.90;;;;;;5049725;28;21105;-76
2023/03/20 01:25:37;;;;;;;17.47;13.80;;;10.70;99.90;;;;;;5048686;28;20854;-76
2023/03/20 01:28:21;;;;;;;19.30;14.33;;;10.70;99.90;;;;;;5048220;28;20423;-76
2023/03/20 01:30:48;;;;;;;22.17;14.77;;;10.70;99.90;;;;;;5049881;28;20236;-76
2023/03/20 01:33:19;;;;;;;19.03;15.50;;;10.70;99.90;;;;;;5048343;28;21070;-76
2023/03/20 01:35:46;;;;;;;19.10;14.20;;;10.70;99.90;;;;;;5049767;28;20499;-77
2023/03/20 01:38:18;;;;;;;18.07;13.40;;;10.70;99.90;;;;;;5048361;28;20988;-76
2023/03/20 01:40:56;;;;;;;17.53;13.80;;;10.70;99.90;;;;;;5048136;28;21004;-77
2023/03/20 01:43:23;;;;;;;15.33;11.50;;;10.70;99.90;;;;;;5048147;28;20460;-76
2023/03/20 01:45:54;;;;;;;16.33;12.27;;;10.70;99.90;;;;;;5049578;28;20428;-76
2023/03/20 01:48:22;;;;;;;16.10;11.83;;;10.60;99.90;;;;;;5049105;28;20408;-77
2023/03/20 01:50:48;;;;;;;20.00;13.43;;;10.60;99.90;;;;;;5047649;28;20957;-77
2023/03/20 01:53:21;;;;;;;19.07;14.53;;;10.60;99.90;;;;;;5049113;28;20519;-77
2023/03/20 01:55:50;;;;;;;18.67;13.63;;;10.60;99.90;;;;;;5049539;28;20177;-77
2023/03/20 01:58:24;;;;;;;18.10;13.70;;;10.50;99.90;;;;;;5049069;28;20984;-77
2023/03/20 02:00:50;;;;;;;16.73;12.20;;;10.50;99.90;;;;;;5047930;28;20460;-77
2023/03/20 02:03:18;;;;;;;15.07;10.87;;;10.50;99.90;;;;;;5049060;28;20447;-76
2023/03/20 02:05:44;;;;;;;16.00;11.90;;;10.40;99.90;;;;;;5048079;28;20307;-76
2023/03/20 02:08:27;;;;;;;16.20;10.93;;;10.50;99.90;;;;;;5046298;28;20527;-76
2023/03/20 02:10:54;;;;;;;14.73;10.67;;;10.50;99.90;;;;;;5047682;28;20969;-76
2023/03/20 02:13:21;;;;;;;14.27;10.97;;;10.50;99.90;;;;;;5047581;28;20478;-76
2023/03/20 02:15:58;;;;;;;14.50;11.03;;;10.40;99.90;;;;;;5049054;28;20412;-76
2023/03/20 02:18:24;;;;;;;13.63;10.67;;;10.40;99.90;;;;;;5047639;28;20416;-76
2023/03/20 02:21:21;;;;;;;19.83;12.13;;;10.40;99.90;;;;;;5048766;28;20932;-77
2023/03/20 02:23:56;;;;;;;14.53;11.03;;;10.40;99.90;;;;;;5048886;28;20440;-76
2023/03/20 02:27:00;;;;;;;14.10;10.50;;;10.40;99.90;;;;;;5047834;28;20412;-77
2023/03/20 02:29:37;;;;;;;15.03;11.20;;;10.40;99.90;;;;;;5047241;28;20931;-77
2023/03/20 02:32:48;;;;;;;14.13;10.50;;;10.40;99.90;;;;;;5049138;28;20404;-76
2023/03/20 02:35:32;;;;;;;13.00;10.07;;;10.30;99.90;;;;;;5048311;28;20416;-76
2023/03/20 02:38:22;;;;;;;12.93;9.77;;;10.40;99.90;;;;;;5048887;28;20495;-76
2023/03/20 02:41:03;;;;;;;14.00;9.43;;;10.30;99.90;;;;;;5048617;28;20486;-76
2023/03/20 02:43:41;;;;;;;14.10;8.80;;;10.30;99.90;;;;;;5048372;28;20432;-76
2023/03/20 02:46:58;;;;;;;12.60;9.13;;;10.30;99.90;;;;;;5048991;28;20565;-76
2023/03/20 02:50:01;;;;;;;12.73;8.90;;;10.20;99.90;;;;;;5009653;28;20920;-76
2023/03/20 02:52:38;;;;;;;12.10;8.67;;;10.20;99.90;;;;;;5026254;28;20475;-76
2023/03/20 02:55:18;;;;;;;12.67;8.73;;;10.20;99.90;;;;;;5042545;28;20408;-76
2023/03/20 02:57:57;;;;;;;14.20;8.43;;;10.20;99.90;;;;;;5048441;28;20994;-77
2023/03/20 03:00:34;;;;;;;10.87;7.93;;;10.20;99.90;;;;;;5030994;28;20416;-76
2023/03/20 03:03:29;;;;;;;10.43;7.30;;;10.20;99.90;;;;;;5047677;28;20471;-76
2023/03/20 03:06:00;;;;;;;10.27;8.00;;;10.10;99.90;;;;;;5047532;28;20416;-76
2023/03/20 03:08:32;;;;;;;10.00;6.90;;;10.20;99.90;;;;;;5052120;28;20491;-77
2023/03/20 03:11:04;;;;;;;8.30;6.33;;;10.10;99.90;;;;;;5052238;28;20408;-76
2023/03/20 03:13:32;;;;;;;11.33;7.53;;;10.10;99.90;;;;;;5050604;28;20921;-75
2023/03/20 03:16:08;;;;;;;8.20;6.60;;;10.10;99.90;;;;;;5051086;28;20616;-76
2023/03/20 03:18:36;;;;;;;9.07;6.70;;;10.20;99.90;;;;;;5050791;28;20423;-76
2023/03/20 03:21:04;;;;;;;9.60;6.93;;;10.10;99.90;;;;;;5051842;28;20459;-76
2023/03/20 03:23:30;;;;;;;7.37;6.50;;;10.00;99.90;;;;;;5051691;28;20432;-76
2023/03/20 03:26:01;;;;;;;9.10;7.77;;;10.10;99.90;;;;;;5052186;28;20408;-76
2023/03/20 03:28:36;;;;;;;9.87;6.77;;;10.10;99.90;;;;;;5051591;28;20185;-76
2023/03/20 03:31:07;;;;;;;8.80;6.37;;;10.10;99.90;;;;;;5051813;28;20793;-77
2023/03/20 03:33:38;;;;;;;7.30;5.87;;;10.10;99.90;;;;;;5051605;28;20523;-76
2023/03/20 03:36:32;;;;;;;10.40;5.93;;;10.10;99.90;;;;;;5050712;28;20933;-77
2023/03/20 03:39:08;;;;;;;8.60;6.50;;;10.10;99.90;;;;;;5051525;28;20420;-76
2023/03/20 03:41:46;;;;;;;8.47;6.83;;;10.10;99.90;;;;;;5050221;28;20451;-77
2023/03/20 03:44:34;;;;;;;7.70;5.80;;;10.10;99.90;;;;;;5050274;28;20436;-77
2023/03/20 03:47:20;;;;;;;8.37;6.93;;;10.00;99.90;;;;;;5051306;28;20409;-76
2023/03/20 03:49:55;;;;;;;10.57;6.73;;;10.20;99.90;;;;;;5051692;28;20416;-76
2023/03/20 03:52:23;;;;;;;11.70;8.33;;;10.00;99.90;;;;;;5051577;28;20419;-77
2023/03/20 03:54:59;;;;;;;10.40;7.63;;;10.00;99.90;;;;;;5051423;28;20455;-76
2023/03/20 03:57:40;;;;;;;10.67;8.10;;;9.90;99.90;;;;;;5051151;28;20416;-76
2023/03/20 04:00:10;;;;;;;12.00;8.20;;;9.80;99.90;;;;;;5051405;28;20420;-76
2023/03/20 04:02:36;;;;;;;10.33;7.40;;;10.00;99.90;;;;;;5051311;28;20487;-76
2023/03/20 04:05:06;;;;;;;13.20;8.77;;;9.80;99.90;;;;;;5051115;28;20499;-78
2023/03/20 04:07:31;;;;;;;11.07;8.03;;;9.80;99.90;;;;;;5051055;28;20419;-76
2023/03/20 04:09:57;;;;;;;10.40;8.03;;;9.90;99.90;;;;;;5050995;28;20417;-77
2023/03/20 04:12:34;;;;;;;11.87;8.40;;;9.70;99.90;;;;;;5051095;28;20208;-76
2023/03/20 04:15:00;;;;;;;11.70;8.30;;;9.70;99.90;;;;;;5049601;28;20177;-76
2023/03/20 04:17:26;;;;;;;14.70;8.50;;;9.70;99.90;;;;;;5050827;28;20482;-76
2023/03/20 04:19:52;;;;;;;11.73;7.83;;;9.70;99.90;;;;;;5049652;28;20460;-76
2023/03/20 04:22:17;;;;;;;11.83;9.50;;;9.70;99.90;;;;;;5049600;28;20217;-76
2023/03/20 04:24:43;;;;;;;13.47;9.37;;;9.70;99.90;;;;;;5050870;28;20279;-76
2023/03/20 04:27:09;;;;;;;11.93;8.97;;;9.60;99.90;;;;;;5050735;28;20316;-76
2023/03/20 04:29:35;;;;;;;11.10;7.93;;;9.70;99.90;;;;;;5050861;28;20231;-76
2023/03/20 04:32:01;;;;;;;13.83;10.20;;;9.70;99.90;;;;;;5049868;28;20416;-76
2023/03/20 04:34:26;;;;;;;12.30;8.97;;;9.70;99.90;;;;;;5047993;28;20805;-77
2023/03/20 04:36:52;;;;;;;13.17;9.17;;;9.70;99.90;;;;;;5049235;28;20228;-77
2023/03/20 04:39:18;;;;;;;12.90;9.80;;;9.80;99.90;;;;;;5064793;28;20200;-77
2023/03/20 04:41:43;;;;;;;12.23;8.67;;;9.70;99.90;;;;;;5070571;28;20220;-76
2023/03/20 04:44:09;;;;;;;16.17;9.87;;;9.80;99.90;;;;;;5070281;28;20208;-76
2023/03/20 04:46:35;;;;;;;15.67;11.23;;;9.70;99.90;;;;;;5070702;28;20191;-77
2023/03/20 04:49:00;;;;;;;15.13;10.40;;;9.60;99.90;;;;;;5068739;28;20235;-78
2023/03/20 04:51:26;;;;;;;13.17;9.40;;;9.60;99.90;;;;;;5070317;28;20183;-77
2023/03/20 04:53:51;;;;;;;18.30;11.40;;;9.70;99.90;;;;;;5068823;28;20204;-77
2023/03/20 04:56:17;;;;;;;14.87;9.50;;;9.70;99.90;;;;;;5070499;28;20208;-77
2023/03/20 04:58:43;;;;;;;15.40;10.07;;;9.70;99.90;;;;;;5069858;28;20226;-77
2023/03/20 05:01:08;;;;;;;15.57;10.50;;;9.60;99.90;;;;;;5070165;28;20200;-77
2023/03/20 05:03:34;;;;;;;17.27;12.00;;;9.50;99.90;;;;;;5069805;28;20189;-77
2023/03/20 05:06:00;;;;;;;16.80;11.20;;;9.70;99.90;;;;;;5052203;28;20211;-77
2023/03/20 05:08:26;;;;;;;15.13;10.50;;;9.60;99.90;;;;;;5051822;28;20197;-77
2023/03/20 05:10:52;;;;;;;15.83;10.03;;;9.70;99.90;;;;;;5069886;28;20180;-77
2023/03/20 05:13:17;;;;;;;16.73;10.03;;;9.60;99.90;;;;;;5069431;28;20462;-78
2023/03/20 05:15:43;;;;;;;15.50;10.60;;;9.60;99.90;;;;;;5070140;28;20484;-78
2023/03/20 05:18:09;;;;;;;14.47;10.40;;;9.80;99.90;;;;;;5069595;28;20647;-77
2023/03/20 05:20:35;;;;;;;15.40;10.47;;;9.50;99.90;;;;;;5044007;28;20735;-77
2023/03/20 05:23:02;;;;;;;12.63;9.30;;;9.50;99.90;;;;;;5049576;28;20476;-77
2023/03/20 05:25:27;;;;;;;14.97;10.70;;;9.50;99.90;;;;;;5047865;28;20416;-77
2023/03/20 05:27:53;;;;;;;14.70;10.40;;;9.40;99.90;;;;;;5049476;28;20785;-77
2023/03/20 05:30:19;;;;;;;15.23;10.23;;;9.50;99.90;;;;;;5049545;28;20177;-77
2023/03/20 05:32:48;;;;;;;15.87;10.60;;;9.40;99.90;;;;;;5049608;28;20273;-78
2023/03/20 05:35:13;;;;;;;15.47;10.27;;;9.40;99.90;;;;;;5049452;28;20416;-77
2023/03/20 05:37:39;;;;;;;14.33;9.80;;;9.40;99.90;;;;;;5049751;28;20408;-77
2023/03/20 05:40:06;;;;;;;14.57;10.47;;;9.40;99.90;;;;;;5069239;28;20260;-77
2023/03/20 05:42:31;;;;;;;15.30;10.57;;;9.40;99.90;;;;;;5048814;28;20578;-77
2023/03/20 05:44:57;;;;;;;14.57;10.30;;;9.40;99.90;;;;;;5048030;28;20423;-78
2023/03/20 05:47:23;;;;;;;16.17;10.00;;;9.40;99.90;;;;;;5031418;28;20174;-78
2023/03/20 05:49:48;;;;;;;16.17;11.27;;;9.50;99.90;;;;;;5048228;28;20268;-78
2023/03/20 05:52:14;;;;;;;15.50;10.80;;;9.40;99.90;;;;;;5031868;28;20537;-78
2023/03/20 05:54:40;;;;;;;16.20;10.27;;;9.30;99.90;;;;;;5049131;28;20610;-75
2023/03/20 05:57:05;;;;;;;19.30;11.60;;;9.30;99.90;;;;;;5048199;28;20213;-77
2023/03/20 05:59:31;;;;;;;15.03;10.13;;;9.30;99.90;;;;;;5048973;28;20658;-78
2023/03/20 06:01:56;;;;;;;16.33;10.63;;;9.30;99.90;;;;;;5048082;28;20225;-77
2023/03/20 06:04:22;;;;;;;16.43;11.93;;;9.30;99.90;;;;;;5048671;28;20197;-77
2023/03/20 06:06:48;;;;;;;16.53;10.07;;;9.30;99.90;;;;;;5049128;28;20177;-77
2023/03/20 06:09:13;;;;;;;19.20;11.40;;;9.30;99.90;;;;;;5049118;28;20178;-77
2023/03/20 06:11:39;;;;;;;15.00;9.67;;;9.30;99.90;;;;;;5048892;28;20184;-78
2023/03/20 06:14:05;;;;;;;16.07;11.00;;;9.20;99.90;;;;;;5045771;28;20206;-77
2023/03/20 06:16:30;;;;;;;16.63;9.93;;;9.40;99.90;;;;;;5031181;28;20177;-77
2023/03/20 06:18:57;;;;;;;18.17;11.30;;;9.30;99.90;;;;;;5047542;28;20706;-77
2023/03/20 06:21:22;;;;;;;14.73;10.70;;;9.30;99.90;;;;;;5048195;28;20292;-77
2023/03/20 06:23:50;;;;;;;16.20;11.50;;;9.30;99.90;;;;;;5047866;28;20483;-77
2023/03/20 06:26:15;;;;;;;15.53;11.30;;;9.30;99.90;;;;;;5048364;28;21034;-76
2023/03/20 06:28:41;;;;;;;14.57;10.40;;;9.30;99.90;;;;;;5049158;28;20631;-76
2023/03/20 06:31:08;;;;;;;16.17;10.90;;;9.20;99.90;;;;;;5050926;28;20185;-77
2023/03/20 06:33:34;;;;;;;14.50;9.93;;;9.30;99.90;;;;;;5064024;28;20265;-76
2023/03/20 06:36:00;;;;;;;16.63;10.43;;;9.20;99.90;;;;;;5058707;28;20447;-77
2023/03/20 06:38:26;;;;;;;14.77;10.40;;;9.20;99.90;;;;;;5055786;28;20814;-76
2023/03/20 06:40:51;;;;;;;14.33;9.90;;;9.30;99.90;;;;;;5053460;28;20186;-77
2023/03/20 06:43:18;;;;;;;14.77;9.83;;;9.30;99.90;;;;;;5035058;28;20643;-77
2023/03/20 06:45:43;;;;;;;13.67;9.20;;;9.30;99.90;;;;;;5052631;28;20174;-78
2023/03/20 06:48:10;;;;;;;13.73;10.00;;;9.40;99.90;;;;;;5052190;28;21015;-77
2023/03/20 06:50:36;;;;;;;13.40;9.43;;;9.30;99.90;;;;;;5046847;28;20656;-77
2023/03/20 06:53:02;;;;;;;14.50;9.67;;;9.30;99.90;;;;;;5032259;28;20433;-77
2023/03/20 06:55:28;;;;;;;12.40;8.60;;;9.30;99.90;;;;;;5030981;28;20439;-77
2023/03/20 06:57:54;;;;;;;13.00;9.03;;;9.40;99.90;;;;;;5014228;28;20416;-77
2023/03/20 07:00:20;;;;;;;12.30;8.83;;;9.20;99.90;;;;;;5032271;28;20428;-77
2023/03/20 07:02:47;;;;;;;11.90;8.20;;;9.30;99.90;;;;;;5048637;28;20475;-77
2023/03/20 07:05:14;;;;;;;13.90;9.50;;;9.40;99.90;;;;;;5049552;28;20766;-77
2023/03/20 07:07:40;;;;;;;13.20;8.60;;;9.50;99.90;;;;;;5051791;28;20459;-77
2023/03/20 07:10:06;;;;;;;14.13;8.97;;;9.20;99.90;;;;;;5051871;28;20425;-77
2023/03/20 07:12:33;;;;;;;15.50;9.27;;;9.20;99.90;;;;;;5040909;28;20507;-77
2023/03/20 07:14:59;;;;;;;11.23;8.77;;;9.50;99.90;;;;;;5019493;28;20429;-77
2023/03/20 07:17:24;;;;;;;13.20;8.27;;;9.40;99.90;;;;;;5046211;28;20487;-77
2023/03/20 07:19:50;;;;;;;14.53;8.80;;;9.30;99.90;;;;;;5046459;28;20260;-77
2023/03/20 07:22:28;;;;;;;16.87;9.00;;;9.40;99.90;;;;;;5050407;28;20301;-77
2023/03/20 07:24:53;;;;;;;10.70;7.57;;;9.40;99.90;;;;;;5033485;28;20197;-77
2023/03/20 07:27:20;;;;;;;13.17;8.73;;;9.40;99.90;;;;;;5050351;28;21233;-77
2023/03/20 07:29:45;;;;;;;13.67;8.70;;;9.40;99.90;;;;;;5049145;28;20185;-77
2023/03/20 07:32:11;;;;;;;12.03;8.53;;;9.30;99.90;;;;;;5051554;28;20434;-77
2023/03/20 07:34:37;;;;;;;12.90;8.77;;;9.40;99.90;;;;;;5048836;28;20267;-77
2023/03/20 07:37:03;;;;;;;13.30;8.43;;;9.70;99.90;;;;;;5049338;28;20251;-77
2023/03/20 07:39:29;;;;;;;10.30;7.43;;;9.60;99.90;;;;;;5053651;28;20174;-77
2023/03/20 07:41:55;;;;;;;11.47;7.87;;;9.60;99.90;;;;;;5051243;28;20534;-77
2023/03/20 07:44:21;;;;;;;10.53;7.57;;;9.60;99.90;;;;;;5051010;28;20439;-77
2023/03/20 07:46:46;;;;;;;11.47;7.27;;;9.60;99.90;;;;;;5050117;28;20243;-77
2023/03/20 07:49:13;;;;;;;7.70;5.80;;;9.60;99.90;;;;;;5050857;28;20178;-77
2023/03/20 07:51:41;;;;;;;9.10;6.50;;;9.60;99.90;;;;;;5051191;28;20193;-77
2023/03/20 07:54:06;;;;;;;10.10;6.00;;;9.60;99.90;;;;;;5051317;28;20439;-77
2023/03/20 07:56:32;;;;;;;14.00;6.87;;;9.90;99.90;;;;;;5051364;28;20424;-77
2023/03/20 07:58:57;;;;;;;8.20;6.30;;;9.80;99.90;;;;;;5051058;28;20190;-77
2023/03/20 08:01:23;;;;;;;8.47;6.33;;;9.80;99.90;;;;;;5050966;28;20240;-77
2023/03/20 08:03:49;;;;;;;8.53;5.83;;;9.80;99.90;;;;;;5051152;28;20244;-77
2023/03/20 08:06:15;;;;;;;7.97;6.30;;;10.00;99.90;;;;;;5051242;28;20316;-77
2023/03/20 08:08:40;;;;;;;9.13;5.77;;;9.90;99.90;;;;;;5051068;28;20174;-77
2023/03/20 08:11:06;;;;;;;9.00;6.10;;;9.80;99.90;;;;;;5050696;28;20575;-77
2023/03/20 08:13:32;;;;;;;7.53;5.83;;;9.90;99.90;;;;;;5050729;28;20317;-76
2023/03/20 08:15:57;;;;;;;9.73;6.13;;;9.90;99.90;;;;;;5044116;28;20240;-77
2023/03/20 08:18:23;;;;;;;8.40;6.20;;;9.90;99.90;;;;;;5041459;28;20189;-77
2023/03/20 08:20:49;;;;;;;8.23;5.33;;;9.90;99.90;;;;;;5040249;28;20214;-77
2023/03/20 08:23:16;;;;;;;8.20;5.40;;;10.10;99.90;;;;;;5041688;28;20284;-77
2023/03/20 08:25:49;;;;;;;10.27;5.73;;;10.00;99.90;;;;;;5042150;28;20420;-77
2023/03/20 08:28:16;;;;;;;8.80;6.30;;;10.00;99.90;;;;;;5046931;28;20439;-77
2023/03/20 08:30:41;;;;;;;10.93;5.83;;;10.00;99.90;;;;;;5034058;28;20567;-77
2023/03/20 08:33:08;;;;;;;12.43;7.27;;;10.10;99.90;;;;;;5042785;28;20572;-77
2023/03/20 08:35:34;;;;;;;10.33;6.10;;;10.10;99.90;;;;;;5039134;28;20727;-76
2023/03/20 08:38:00;;;;;;;10.90;6.10;;;10.10;99.90;;;;;;5044289;28;20494;-77
2023/03/20 08:40:26;;;;;;;10.07;6.70;;;10.20;99.90;;;;;;5040464;28;21063;-77
2023/03/20 08:42:51;;;;;;;10.60;6.57;;;10.20;99.90;;;;;;5039381;28;20456;-77
2023/03/20 08:45:17;;;;;;;12.90;7.93;;;10.30;99.90;;;;;;5042744;28;20643;-77
2023/03/20 08:47:47;;;;;;;10.23;7.40;;;10.30;99.90;;;;;;5043760;28;20204;-77
2023/03/20 08:50:12;;;;;;;12.73;7.20;;;10.30;99.90;;;;;;5049033;28;20217;-76
2023/03/20 08:52:42;;;;;;;8.53;6.60;;;10.30;99.90;;;;;;5050219;28;20428;-77
2023/03/20 08:55:09;;;;;;;9.37;6.47;;;10.50;99.90;;;;;;5048890;28;20252;-77
2023/03/20 08:57:36;;;;;;;9.30;6.00;;;10.50;99.90;;;;;;5046127;28;20424;-77
2023/03/20 09:00:04;;;;;;;9.43;7.30;;;10.30;99.90;;;;;;5047897;28;20424;-77
2023/03/20 09:02:30;;;;;;;10.00;6.67;;;10.30;99.90;;;;;;5050036;28;20448;-77
2023/03/20 09:04:56;;;;;;;10.67;5.70;;;10.50;99.90;;;;;;5049599;28;20435;-77
2023/03/20 09:07:21;;;;;;;8.50;6.20;;;10.30;99.90;;;;;;5048457;28;20265;-76
2023/03/20 09:09:47;;;;;;;9.30;6.30;;;10.40;99.90;;;;;;5048182;28;20190;-76
2023/03/20 09:12:13;;;;;;;10.83;5.67;;;10.30;99.90;;;;;;5036831;28;20687;-77
2023/03/20 09:14:39;;;;;;;8.47;5.77;;;10.40;99.90;;;;;;5052375;28;20205;-77
2023/03/20 09:17:06;;;;;;;15.07;7.00;;;10.30;99.90;;;;;;5063284;28;20802;-76
2023/03/20 09:19:33;;;;;;;10.57;6.30;;;10.40;99.90;;;;;;5046916;28;20421;-77
2023/03/20 09:21:59;;;;;;;10.67;7.67;;;10.40;99.90;;;;;;5047443;28;21199;-77
2023/03/20 09:24:25;;;;;;;8.90;5.87;;;10.40;99.90;;;;;;5040043;28;20482;-77
2023/03/20 09:26:51;;;;;;;9.90;5.77;;;10.30;99.90;;;;;;5041853;28;21130;-77
2023/03/20 09:29:17;;;;;;;8.87;5.80;;;10.30;99.90;;;;;;5049636;28;20424;-77
2023/03/20 09:31:43;;;;;;;6.23;4.83;;;10.40;99.90;;;;;;5048351;28;20193;-77
2023/03/20 09:34:09;;;;;;;9.37;6.00;;;10.30;99.90;;;;;;5049148;28;20674;-77
2023/03/20 09:36:34;;;;;;;8.70;5.67;;;10.40;99.90;;;;;;5045955;28;20504;-77
2023/03/20 09:39:00;;;;;;;7.00;5.97;;;10.40;99.90;;;;;;5052271;28;20412;-77
2023/03/20 09:41:35;;;;;;;10.23;6.00;;;10.40;99.90;;;;;;5069286;28;20227;-77
2023/03/20 09:44:07;;;;;;;8.87;6.50;;;10.30;99.90;;;;;;5069081;28;20973;-77
2023/03/20 09:47:10;;;;;;;10.03;5.63;;;10.40;99.90;;;;;;5068121;28;20415;-76
2023/03/20 09:49:47;;;;;;;8.77;5.53;;;10.30;99.90;;;;;;5066982;28;20795;-76
2023/03/20 09:52:33;;;;;;;7.90;5.90;;;10.30;99.90;;;;;;5057970;28;20477;-76
2023/03/20 09:55:11;;;;;;;9.63;6.10;;;10.30;99.90;;;;;;5045671;28;20442;-76
2023/03/20 09:57:41;;;;;;;9.20;5.13;;;10.40;99.90;;;;;;5044616;28;20432;-77
2023/03/20 10:00:18;;;;;;;7.47;5.63;;;10.50;99.90;;;;;;5046963;28;20431;-76
2023/03/20 10:03:07;;;;;;;9.97;5.27;;;10.30;99.90;;;;;;5029068;28;20537;-76
2023/03/20 10:05:46;;;;;;;7.90;5.87;;;10.30;99.90;;;;;;5044742;28;20416;-76
2023/03/20 10:08:17;;;;;;;6.70;5.30;;;10.30;99.90;;;;;;5046691;28;20412;-77
2023/03/20 10:11:00;;;;;;;10.07;4.80;;;10.30;99.90;;;;;;5048520;28;20417;-77
2023/03/20 10:13:54;;;;;;;9.03;4.40;;;10.30;99.90;;;;;;5048521;28;20619;-77
2023/03/20 10:16:51;;;;;;;7.87;5.00;;;10.30;99.90;;;;;;5055197;28;20416;-77
2023/03/20 10:19:23;;;;;;;7.57;5.27;;;10.50;99.90;;;;;;5048939;28;20415;-76
2023/03/20 10:22:03;;;;;;;9.40;4.83;;;10.30;99.90;;;;;;5048983;28;20452;-76
2023/03/20 10:24:38;;;;;;;8.47;4.60;;;10.30;99.90;;;;;;5048919;28;20439;-77
2023/03/20 10:27:29;;;;;;;9.27;4.67;;;10.30;99.90;;;;;;5048965;28;20488;-77
2023/03/20 10:30:07;;;;;;;6.47;4.53;;;10.40;99.90;;;;;;5049050;28;20447;-76
2023/03/20 10:32:50;;;;;;;6.80;3.87;;;10.40;99.90;;;;;;5047896;28;20422;-76
2023/03/20 10:35:32;;;;;;;6.00;4.50;;;10.20;99.90;;;;;;5049140;28;20416;-77
2023/03/20 10:38:19;;;;;;;7.60;4.57;;;10.40;99.90;;;;;;5051905;28;20954;-77
2023/03/20 10:40:45;;;;;;;4.53;3.17;;;10.30;99.90;;;;;;5055478;28;20434;-77
2023/03/20 10:43:14;;;;;;;6.93;3.37;;;10.40;99.90;;;;;;5046498;28;20493;-77
2023/03/20 10:45:42;;;;;;;5.20;2.50;;;10.40;99.90;;;;;;5045673;28;20423;-77
2023/03/20 10:48:28;;;;;;;3.37;2.07;;;10.40;99.90;;;;;;5048405;28;20420;-76
2023/03/20 10:50:55;;;;;;;4.00;2.53;;;10.50;99.90;;;;;;5048862;28;20909;-77
2023/03/20 10:53:35;;;;;;;3.87;2.60;;;10.60;99.90;;;;;;5048620;28;20435;-77
2023/03/20 10:56:12;;;;;;;7.40;2.43;;;10.60;99.90;;;;;;5048141;28;20434;-76
2023/03/20 10:58:40;;;;;;;7.43;2.67;;;10.60;99.90;;;;;;5048378;28;20424;-76
2023/03/20 11:01:06;;;;;;;7.50;2.53;;;10.60;99.90;;;;;;5048811;28;20452;-77
2023/03/20 11:03:35;;;;;;;6.67;2.80;;;10.60;99.90;;;;;;5047218;28;20490;-76
2023/03/20 11:06:21;;;;;;;4.20;3.00;;;10.60;99.90;;;;;;5049010;28;20425;-77
2023/03/20 11:08:52;;;;;;;3.50;3.20;;;10.40;99.90;;;;;;5048455;28;21012;-76
2023/03/20 11:11:27;;;;;;;6.43;2.80;;;10.60;99.90;;;;;;5047358;28;20420;-77
2023/03/20 11:13:53;;;;;;;3.77;3.03;;;10.60;99.90;;;;;;5048260;28;20463;-77
2023/03/20 11:16:24;;;;;;;3.70;2.50;;;10.60;99.90;;;;;;5047663;28;20502;-77
2023/03/20 11:18:52;;;;;;;5.17;3.13;;;10.60;99.90;;;;;;5047184;28;20429;-77
2023/03/20 11:21:27;;;;;;;5.43;2.70;;;10.70;99.90;;;;;;5048510;28;20458;-77
2023/03/20 11:23:54;;;;;;;6.20;3.10;;;10.70;99.90;;;;;;5050076;28;20462;-77
2023/03/20 11:26:31;;;;;;;6.70;3.70;;;10.80;99.90;;;;;;5041222;28;20948;-76
2023/03/20 11:28:59;;;;;;;4.17;3.10;;;10.80;99.90;;;;;;5031908;28;20420;-77
2023/03/20 11:31:30;;;;;;;5.23;3.83;;;10.80;99.90;;;;;;5032259;28;20471;-77
2023/03/20 11:34:14;;;;;;;5.80;2.70;;;10.80;99.90;;;;;;5031962;28;20441;-77
2023/03/20 11:36:46;;;;;;;3.33;2.40;;;10.90;99.90;;;;;;5032378;28;20471;-77
2023/03/20 11:39:22;;;;;;;5.23;3.30;;;10.90;99.90;;;;;;5032165;28;20439;-77
2023/03/20 11:41:53;;;;;;;5.80;3.03;;;10.90;99.90;;;;;;5032155;28;20535;-77
2023/03/20 11:44:26;;;;;;;3.50;2.70;;;10.90;99.90;;;;;;5033926;28;20510;-76
2023/03/20 11:47:14;;;;;;;5.00;2.63;;;11.00;99.90;;;;;;5041090;28;20420;-76
2023/03/20 11:49:55;;;;;;;5.43;3.13;;;11.00;99.90;;;;;;5050173;28;20988;-77
2023/03/20 11:52:33;;;;;;;3.23;2.53;;;11.00;99.90;;;;;;5052165;28;20473;-77
2023/03/20 11:55:03;;;;;;;6.30;3.20;;;11.00;99.90;;;;;;5051601;28;20801;-77
2023/03/20 11:57:40;;;;;;;6.33;3.43;;;10.90;99.90;;;;;;5050396;28;20848;-76
2023/03/20 12:00:21;;;;;;;4.93;3.27;;;10.90;99.90;;;;;;5051501;28;20420;-77
2023/03/20 12:02:48;;;;;;;5.93;2.83;;;10.80;99.90;;;;;;5050276;28;20464;-76
2023/03/20 12:05:38;;;;;;;5.73;3.13;;;10.80;99.90;;;;;;5050324;28;20408;-76
2023/03/20 12:08:14;;;;;;;5.80;3.50;;;10.80;99.90;;;;;;5050211;28;20440;-76
2023/03/20 12:10:50;;;;;;;5.07;2.70;;;10.80;99.90;;;;;;5051525;28;20792;-77
2023/03/20 12:13:28;;;;;;;4.23;2.70;;;10.80;99.90;;;;;;5051036;28;20460;-76
2023/03/20 12:16:00;;;;;;;5.53;3.00;;;10.80;99.90;;;;;;5050327;28;20422;-77
2023/03/20 12:18:37;;;;;;;3.43;2.37;;;10.80;99.90;;;;;;5051048;28;20408;-76
2023/03/20 12:21:27;;;;;;;3.23;2.20;;;10.80;99.90;;;;;;5051079;28;20427;-77
2023/03/20 12:24:19;;;;;;;7.23;2.63;;;10.80;99.90;;;;;;5051199;28;20431;-77
2023/03/20 12:27:04;;;;;;;5.20;2.83;;;10.80;99.90;;;;;;5049986;28;20462;-76
2023/03/20 12:29:57;;;;;;;4.83;2.80;;;10.80;99.90;;;;;;5049847;28;20495;-77
2023/03/20 12:32:44;;;;;;;5.27;2.87;;;10.90;99.90;;;;;;5050115;28;20498;-77
2023/03/20 12:35:12;;;;;;;6.20;2.97;;;10.80;99.90;;;;;;5049528;28;20408;-76
2023/03/20 12:37:38;;;;;;;5.27;3.67;;;10.80;99.90;;;;;;5037740;28;20460;-77
2023/03/20 12:40:04;;;;;;;7.60;3.20;;;10.80;99.90;;;;;;5050398;28;20440;-76
2023/03/20 12:42:42;;;;;;;4.20;2.73;;;10.80;99.90;;;;;;5036155;28;20203;-77
2023/03/20 12:45:20;;;;;;;5.00;3.63;;;11.10;99.90;;;;;;5047819;28;20808;-76
2023/03/20 12:48:18;;;;;;;6.93;3.17;;;10.40;99.90;;;;;;5050020;28;20408;-77
2023/03/20 12:50:46;;;;;;;5.60;3.00;;;10.70;99.90;;;;;;5050057;28;20400;-76
2023/03/20 12:53:18;;;;;;;6.50;3.00;;;10.70;99.90;;;;;;5049858;28;21147;-77
2023/03/20 12:55:55;;;;;;;7.43;3.80;;;10.70;99.90;;;;;;5048870;28;20419;-77
2023/03/20 12:58:43;;;;;;;10.27;3.40;;;10.70;99.90;;;;;;5048649;28;20462;-76
2023/03/20 13:01:35;;;;;;;6.90;3.57;;;10.70;99.90;;;;;;5040762;28;20511;-77